Time;durP1;ratioP1;P1;durP2;ratioP2;P2;SDS_P1;SDS_P2;PMS_P1;PMS_P2;Temp;Humidity;BMP_temperature;BMP_pressure;BME280_temperature;BME280_humidity;BME280_pressure;Samples;Min_cycle;Max_cycle;Signal;HPM_P1;HPM_P2
2021/09/16 00:01:48;;;;;;;16.58;8.85;;;15.70;98.30;;;;;;5022273;28;20030;-67
2021/09/16 00:04:13;;;;;;;17.88;8.82;;;15.80;98.40;;;;;;5025047;28;20545;-68
2021/09/16 00:06:39;;;;;;;13.98;8.10;;;15.80;98.30;;;;;;5023726;28;20041;-67
2021/09/16 00:09:05;;;;;;;16.48;8.50;;;15.70;98.20;;;;;;5023763;28;20450;-67
2021/09/16 00:11:30;;;;;;;12.60;8.32;;;15.70;98.20;;;;;;5020665;28;20151;-67
2021/09/16 00:13:56;;;;;;;14.27;8.38;;;15.70;98.20;;;;;;5019700;28;20092;-68
2021/09/16 00:16:22;;;;;;;18.75;9.00;;;15.70;98.10;;;;;;5020940;28;20075;-67
2021/09/16 00:18:48;;;;;;;11.27;7.75;;;15.70;98.10;;;;;;5022042;28;20034;-68
2021/09/16 00:21:14;;;;;;;12.68;7.65;;;15.70;98.00;;;;;;5023441;28;20029;-67
2021/09/16 00:23:39;;;;;;;14.10;7.57;;;15.70;98.00;;;;;;5022604;28;20041;-70
2021/09/16 00:26:05;;;;;;;18.67;7.95;;;15.60;98.00;;;;;;5022061;28;20025;-67
2021/09/16 00:28:31;;;;;;;12.77;7.75;;;15.60;97.90;;;;;;5023829;28;20025;-67
2021/09/16 00:30:56;;;;;;;13.48;7.53;;;15.60;97.90;;;;;;5025456;28;20460;-67
2021/09/16 00:33:22;;;;;;;12.43;7.28;;;15.60;97.70;;;;;;5022471;28;20025;-67
2021/09/16 00:35:48;;;;;;;17.02;7.50;;;15.60;97.70;;;;;;5024994;28;20579;-67
2021/09/16 00:38:13;;;;;;;15.00;7.68;;;15.60;97.80;;;;;;5023629;28;20061;-67
2021/09/16 00:40:39;;;;;;;12.73;7.47;;;15.60;97.70;;;;;;5023231;28;20018;-66
2021/09/16 00:43:04;;;;;;;14.48;6.75;;;15.50;97.70;;;;;;5019680;28;20022;-67
2021/09/16 00:45:31;;;;;;;14.70;7.32;;;15.50;97.40;;;;;;5022489;28;20105;-67
2021/09/16 00:47:56;;;;;;;9.95;6.35;;;15.50;97.40;;;;;;5022771;28;20128;-67
2021/09/16 00:50:24;;;;;;;10.45;6.55;;;15.50;97.30;;;;;;5023781;28;20124;-67
2021/09/16 00:52:50;;;;;;;15.32;6.38;;;15.50;97.20;;;;;;5022632;28;20133;-67
2021/09/16 00:55:16;;;;;;;18.48;5.97;;;15.50;97.20;;;;;;5017788;28;20955;-67
2021/09/16 00:57:49;;;;;;;9.77;5.95;;;15.50;97.30;;;;;;5020940;28;20123;-68
2021/09/16 01:00:15;;;;;;;11.55;6.13;;;15.50;97.50;;;;;;5022976;28;20017;-68
2021/09/16 01:02:41;;;;;;;10.00;5.97;;;15.50;97.50;;;;;;5020396;28;20067;-68
2021/09/16 01:05:07;;;;;;;11.93;5.43;;;15.50;97.60;;;;;;5022355;28;20034;-67
2021/09/16 01:07:32;;;;;;;11.25;5.30;;;15.50;97.60;;;;;;5016440;28;20030;-67
2021/09/16 01:09:59;;;;;;;11.65;5.18;;;15.40;97.60;;;;;;5023664;28;20128;-68
2021/09/16 01:12:26;;;;;;;16.85;5.55;;;15.40;97.40;;;;;;5020193;28;20526;-67
2021/09/16 01:14:51;;;;;;;9.60;4.57;;;15.40;97.30;;;;;;5019549;28;20034;-67
2021/09/16 01:17:17;;;;;;;9.05;4.55;;;15.40;97.30;;;;;;5017998;28;20451;-67
2021/09/16 01:19:43;;;;;;;10.05;4.43;;;15.30;97.20;;;;;;5022715;28;20024;-67
2021/09/16 01:22:20;;;;;;;9.73;3.97;;;15.30;97.00;;;;;;5018739;28;20101;-67
2021/09/16 01:24:46;;;;;;;9.30;3.95;;;15.30;96.60;;;;;;5023327;28;20100;-67
2021/09/16 01:27:12;;;;;;;10.23;3.42;;;15.30;96.60;;;;;;5018815;28;20752;-67
2021/09/16 01:29:38;;;;;;;8.90;3.15;;;15.30;96.50;;;;;;5024848;28;20121;-67
2021/09/16 01:32:05;;;;;;;8.95;3.35;;;15.30;96.50;;;;;;5022723;28;20148;-68
2021/09/16 01:34:31;;;;;;;10.00;3.25;;;15.30;96.60;;;;;;5024312;28;20052;-67
2021/09/16 01:36:57;;;;;;;6.75;2.97;;;15.20;96.70;;;;;;5021898;28;20022;-67
2021/09/16 01:39:24;;;;;;;10.48;3.17;;;15.20;96.60;;;;;;5022729;28;20068;-67
2021/09/16 01:41:50;;;;;;;5.78;2.90;;;15.20;96.70;;;;;;5023272;28;20296;-67
2021/09/16 01:44:15;;;;;;;10.70;1.95;;;15.10;96.40;;;;;;5021075;28;20291;-67
2021/09/16 01:46:41;;;;;;;6.63;1.50;;;15.10;96.10;;;;;;5022146;28;20091;-67
2021/09/16 01:49:07;;;;;;;8.63;1.77;;;15.10;95.50;;;;;;5022221;28;20497;-67
2021/09/16 01:51:34;;;;;;;6.60;1.35;;;15.10;95.30;;;;;;5021278;28;20030;-67
2021/09/16 01:54:00;;;;;;;5.68;1.50;;;15.00;95.50;;;;;;5021903;28;20029;-67
2021/09/16 01:56:25;;;;;;;5.30;1.58;;;15.00;95.30;;;;;;5022945;28;20238;-67
2021/09/16 01:58:52;;;;;;;5.78;1.60;;;15.00;95.10;;;;;;5020989;28;20075;-66
2021/09/16 02:01:17;;;;;;;7.75;1.77;;;15.00;95.10;;;;;;5021890;28;20030;-67
2021/09/16 02:03:43;;;;;;;4.78;1.85;;;15.00;95.50;;;;;;5020835;28;20121;-67
2021/09/16 02:06:09;;;;;;;6.95;1.80;;;15.00;95.70;;;;;;5024429;28;20041;-67
2021/09/16 02:08:34;;;;;;;5.30;1.90;;;14.90;95.80;;;;;;5023816;28;20029;-67
2021/09/16 02:11:00;;;;;;;7.25;2.10;;;14.90;96.10;;;;;;5017300;28;20036;-67
2021/09/16 02:13:28;;;;;;;7.65;2.05;;;14.80;96.00;;;;;;5018119;28;20053;-67
2021/09/16 02:15:53;;;;;;;5.75;1.73;;;14.80;95.90;;;;;;5018112;28;20673;-67
2021/09/16 02:18:19;;;;;;;5.85;1.60;;;14.90;95.80;;;;;;5021045;28;20017;-67
2021/09/16 02:20:45;;;;;;;6.15;1.60;;;14.80;95.20;;;;;;5021545;28;20043;-68
2021/09/16 02:23:10;;;;;;;4.72;1.48;;;14.80;95.10;;;;;;5018091;28;20026;-66
2021/09/16 02:25:36;;;;;;;3.50;1.30;;;14.80;94.70;;;;;;5023039;28;20041;-67
2021/09/16 02:28:01;;;;;;;6.75;1.27;;;14.80;94.80;;;;;;5019805;28;20158;-67
2021/09/16 02:30:27;;;;;;;5.35;1.15;;;14.70;94.40;;;;;;5022111;28;20033;-67
2021/09/16 02:32:53;;;;;;;4.22;0.95;;;14.70;94.40;;;;;;5020689;28;20033;-67
2021/09/16 02:35:18;;;;;;;4.63;0.80;;;14.60;94.10;;;;;;5017595;28;20032;-67
2021/09/16 02:37:44;;;;;;;3.95;0.80;;;14.60;94.00;;;;;;5020721;28;20105;-67
2021/09/16 02:40:10;;;;;;;6.07;1.10;;;14.60;93.50;;;;;;5024148;28;20022;-67
2021/09/16 02:42:37;;;;;;;3.75;1.00;;;14.60;93.40;;;;;;5026460;28;20516;-67
2021/09/16 02:45:07;;;;;;;5.60;1.00;;;14.60;93.40;;;;;;5027089;28;20029;-67
2021/09/16 02:47:32;;;;;;;6.03;1.15;;;14.60;93.70;;;;;;5022679;28;20567;-67
2021/09/16 02:49:58;;;;;;;4.45;0.70;;;14.60;93.90;;;;;;5026684;28;20044;-67
2021/09/16 02:52:24;;;;;;;6.55;1.08;;;14.50;93.60;;;;;;5025071;28;20108;-67
2021/09/16 02:54:50;;;;;;;7.65;1.10;;;14.50;93.90;;;;;;5022697;28;20022;-70
2021/09/16 02:57:15;;;;;;;3.50;0.82;;;14.50;93.80;;;;;;5023844;28;20038;-66
2021/09/16 02:59:41;;;;;;;4.72;1.05;;;14.50;93.90;;;;;;5021205;28;20486;-67
2021/09/16 03:02:06;;;;;;;5.55;1.10;;;14.50;94.10;;;;;;5025466;28;20021;-67
2021/09/16 03:04:32;;;;;;;5.70;1.00;;;14.40;94.40;;;;;;5025348;28;20095;-67
2021/09/16 03:06:58;;;;;;;5.55;1.13;;;14.40;94.10;;;;;;5026800;28;20280;-67
2021/09/16 03:09:23;;;;;;;3.28;1.00;;;14.40;94.40;;;;;;5023971;28;20029;-67
2021/09/16 03:11:50;;;;;;;3.53;0.98;;;14.40;94.40;;;;;;5021443;28;20464;-67
2021/09/16 03:14:15;;;;;;;5.15;0.90;;;14.30;93.80;;;;;;5023262;28;20034;-67
2021/09/16 03:16:41;;;;;;;2.85;0.95;;;14.30;93.80;;;;;;5022609;28;20022;-67
2021/09/16 03:19:07;;;;;;;4.88;1.20;;;14.30;93.90;;;;;;5023247;28;20033;-67
2021/09/16 03:21:33;;;;;;;5.25;0.85;;;14.30;93.90;;;;;;5023877;28;20106;-67
2021/09/16 03:23:59;;;;;;;5.80;0.88;;;14.30;94.00;;;;;;5025474;28;20030;-67
2021/09/16 03:26:25;;;;;;;7.90;0.90;;;14.20;94.00;;;;;;5024802;28;20025;-67
2021/09/16 03:28:51;;;;;;;3.45;0.65;;;14.30;94.00;;;;;;5022801;28;20480;-67
2021/09/16 03:31:16;;;;;;;4.47;1.02;;;14.20;94.30;;;;;;5024569;28;20044;-67
2021/09/16 03:33:42;;;;;;;3.17;0.98;;;14.20;94.50;;;;;;5026670;28;20559;-68
2021/09/16 03:36:08;;;;;;;3.22;0.80;;;14.20;94.20;;;;;;5023061;28;21801;-68
2021/09/16 03:38:33;;;;;;;5.28;1.00;;;14.20;94.10;;;;;;5024267;28;20543;-67
2021/09/16 03:41:00;;;;;;;3.88;0.90;;;14.20;94.20;;;;;;5021748;28;20041;-67
2021/09/16 03:43:25;;;;;;;3.05;0.90;;;14.20;94.20;;;;;;5021584;28;20022;-67
2021/09/16 03:45:51;;;;;;;7.65;0.98;;;14.10;94.40;;;;;;5024300;28;20056;-66
2021/09/16 03:48:17;;;;;;;5.03;0.93;;;14.10;94.40;;;;;;5018763;28;20113;-67
2021/09/16 03:50:42;;;;;;;5.47;0.88;;;14.10;94.70;;;;;;5023587;28;20064;-67
2021/09/16 03:53:08;;;;;;;5.55;1.30;;;14.10;94.60;;;;;;5021339;28;20634;-67
2021/09/16 03:55:34;;;;;;;6.45;1.40;;;14.10;94.60;;;;;;5023796;28;20032;-67
2021/09/16 03:57:59;;;;;;;3.63;1.02;;;14.10;94.60;;;;;;5019962;28;20030;-67
2021/09/16 04:00:26;;;;;;;4.82;1.05;;;14.10;94.60;;;;;;5023681;28;20040;-67
2021/09/16 04:02:51;;;;;;;4.65;1.40;;;14.10;94.70;;;;;;5024955;28;20558;-67
2021/09/16 04:05:17;;;;;;;6.25;1.45;;;14.10;94.80;;;;;;5021031;28;20316;-67
2021/09/16 04:07:42;;;;;;;3.33;1.00;;;14.10;94.80;;;;;;5018558;28;20034;-67
2021/09/16 04:10:09;;;;;;;6.80;1.50;;;14.10;94.80;;;;;;5022701;28;20025;-67
2021/09/16 04:12:36;;;;;;;8.32;1.30;;;14.10;94.90;;;;;;5019652;28;20033;-67
2021/09/16 04:15:03;;;;;;;5.75;1.30;;;14.00;95.10;;;;;;5022363;28;20468;-68
2021/09/16 04:17:30;;;;;;;7.50;1.08;;;14.00;95.20;;;;;;5016841;28;20021;-68
2021/09/16 04:19:55;;;;;;;4.28;1.20;;;13.90;95.30;;;;;;5023743;28;20488;-63
2021/09/16 04:22:21;;;;;;;4.32;1.38;;;13.90;95.50;;;;;;5021746;28;20025;-63
2021/09/16 04:24:46;;;;;;;5.07;0.98;;;13.90;95.60;;;;;;5025695;28;20088;-64
2021/09/16 04:27:13;;;;;;;6.45;0.90;;;13.90;95.60;;;;;;5020986;28;20546;-64
2021/09/16 04:29:40;;;;;;;3.95;1.38;;;13.80;95.60;;;;;;5025744;28;20025;-64
2021/09/16 04:32:06;;;;;;;4.00;1.05;;;13.80;95.70;;;;;;5023561;28;20037;-63
2021/09/16 04:34:31;;;;;;;6.68;1.55;;;13.80;95.70;;;;;;5025470;28;20030;-63
2021/09/16 04:36:57;;;;;;;1.33;0.65;;;13.80;95.90;;;;;;5021687;28;20067;-64
2021/09/16 04:39:22;;;;;;;7.68;1.20;;;13.80;95.80;;;;;;5024997;28;20033;-63
2021/09/16 04:41:48;;;;;;;3.67;1.05;;;13.80;95.80;;;;;;5021443;28;20041;-64
2021/09/16 04:44:14;;;;;;;5.45;1.30;;;13.80;95.80;;;;;;5024826;28;20085;-63
2021/09/16 04:46:40;;;;;;;5.30;1.67;;;13.80;95.90;;;;;;5019967;28;20025;-64
2021/09/16 04:49:06;;;;;;;6.30;1.30;;;13.70;95.90;;;;;;5025340;28;20056;-64
2021/09/16 04:51:31;;;;;;;6.38;1.88;;;13.80;95.80;;;;;;5020678;28;20560;-63
2021/09/16 04:53:57;;;;;;;7.00;1.63;;;13.80;95.80;;;;;;5022181;28;20110;-64
2021/09/16 04:56:22;;;;;;;6.07;2.10;;;13.80;95.90;;;;;;5020716;28;20052;-64
2021/09/16 04:58:48;;;;;;;8.15;2.25;;;13.70;96.00;;;;;;5023583;28;20034;-64
2021/09/16 05:01:13;;;;;;;8.13;2.38;;;13.70;96.00;;;;;;5021235;28;20032;-63
2021/09/16 05:03:39;;;;;;;8.60;2.35;;;13.70;96.00;;;;;;5024203;28;20056;-64
2021/09/16 05:06:05;;;;;;;8.30;2.75;;;13.70;96.10;;;;;;5022114;28;20388;-64
2021/09/16 05:08:30;;;;;;;9.57;2.55;;;13.70;96.20;;;;;;5020801;28;20025;-64
2021/09/16 05:10:56;;;;;;;10.57;2.67;;;13.70;96.20;;;;;;5023904;28;20165;-64
2021/09/16 05:13:21;;;;;;;7.95;2.45;;;13.70;96.20;;;;;;5021382;28;20144;-64
2021/09/16 05:15:48;;;;;;;8.70;2.45;;;13.60;96.40;;;;;;5022682;28;20380;-64
2021/09/16 05:18:13;;;;;;;6.55;2.58;;;13.60;96.30;;;;;;5021251;28;20476;-64
2021/09/16 05:20:39;;;;;;;6.43;2.85;;;13.60;96.30;;;;;;5023538;28;20040;-63
2021/09/16 05:23:04;;;;;;;7.38;2.25;;;13.70;96.30;;;;;;5023203;28;20033;-64
2021/09/16 05:25:30;;;;;;;12.50;2.40;;;13.70;96.30;;;;;;5021542;28;20370;-64
2021/09/16 05:27:56;;;;;;;6.88;2.20;;;13.70;96.20;;;;;;5021800;28;20033;-63
2021/09/16 05:30:21;;;;;;;7.47;2.20;;;13.70;96.30;;;;;;5024304;28;20029;-64
2021/09/16 05:32:47;;;;;;;4.95;1.92;;;13.80;96.30;;;;;;5022632;28;20029;-64
2021/09/16 05:35:13;;;;;;;7.47;2.05;;;13.70;96.20;;;;;;5022657;28;20607;-64
2021/09/16 05:37:39;;;;;;;7.35;1.90;;;13.80;96.10;;;;;;5023234;28;20293;-64
2021/09/16 05:40:05;;;;;;;7.35;2.20;;;13.80;96.20;;;;;;5022585;28;20025;-63
2021/09/16 05:42:31;;;;;;;5.85;1.90;;;13.80;96.20;;;;;;5022273;28;20440;-66
2021/09/16 05:44:56;;;;;;;6.78;2.00;;;13.80;96.30;;;;;;5024976;28;20033;-63
2021/09/16 05:47:22;;;;;;;7.53;1.95;;;13.80;96.20;;;;;;5021707;28;20029;-64
2021/09/16 05:49:48;;;;;;;5.20;2.08;;;13.80;96.30;;;;;;5024549;28;20488;-64
2021/09/16 05:52:14;;;;;;;5.85;2.20;;;13.80;96.40;;;;;;5021419;28;20112;-64
2021/09/16 05:54:40;;;;;;;10.80;3.30;;;13.80;96.30;;;;;;5022377;28;20138;-63
2021/09/16 05:57:05;;;;;;;7.03;3.15;;;13.90;96.40;;;;;;5022784;28;20049;-64
2021/09/16 05:59:31;;;;;;;10.98;3.55;;;13.90;96.30;;;;;;5025257;28;20018;-64
2021/09/16 06:01:57;;;;;;;9.82;3.45;;;13.90;96.40;;;;;;5022383;28;20136;-64
2021/09/16 06:04:23;;;;;;;7.80;3.58;;;13.90;96.30;;;;;;5022736;28;20021;-64
2021/09/16 06:06:49;;;;;;;11.25;3.85;;;14.00;96.30;;;;;;5023767;28;20446;-64
2021/09/16 06:09:14;;;;;;;12.93;3.67;;;14.00;96.30;;;;;;5024027;28;20069;-63
2021/09/16 06:11:40;;;;;;;12.07;3.97;;;14.00;96.20;;;;;;5013997;28;20030;-64
2021/09/16 06:14:05;;;;;;;8.45;3.60;;;14.10;96.10;;;;;;5022085;28;20029;-64
2021/09/16 06:16:31;;;;;;;9.80;3.42;;;14.10;96.10;;;;;;5023694;28;20025;-63
2021/09/16 06:18:57;;;;;;;8.05;3.13;;;14.10;96.20;;;;;;5026198;28;20053;-64
2021/09/16 06:21:22;;;;;;;7.50;3.55;;;14.10;96.30;;;;;;5026722;28;20639;-64
2021/09/16 06:23:48;;;;;;;9.23;3.50;;;14.10;96.20;;;;;;5021710;28;20026;-64
2021/09/16 06:26:13;;;;;;;8.13;3.63;;;14.10;96.20;;;;;;5025052;28;20638;-64
2021/09/16 06:28:39;;;;;;;10.75;3.95;;;14.10;96.20;;;;;;5025565;28;20154;-64
2021/09/16 06:31:05;;;;;;;9.60;4.85;;;14.10;96.10;;;;;;5025664;28;20029;-64
2021/09/16 06:33:30;;;;;;;11.38;4.65;;;14.10;96.00;;;;;;5025973;28;20025;-63
2021/09/16 06:35:56;;;;;;;12.07;4.50;;;14.10;96.00;;;;;;5027100;28;20025;-64
2021/09/16 06:38:21;;;;;;;7.93;4.53;;;14.20;96.00;;;;;;5025798;28;20096;-64
2021/09/16 06:40:47;;;;;;;11.02;4.68;;;14.20;95.80;;;;;;5027431;28;20021;-64
2021/09/16 06:43:13;;;;;;;10.23;4.88;;;14.20;95.90;;;;;;5026810;28;21007;-64
2021/09/16 06:45:38;;;;;;;13.98;5.22;;;14.30;96.00;;;;;;5026062;28;20075;-63
2021/09/16 06:48:04;;;;;;;7.50;4.45;;;14.30;95.90;;;;;;5025503;28;20029;-64
2021/09/16 06:50:30;;;;;;;8.77;5.25;;;14.30;95.90;;;;;;5025698;28;20112;-64
2021/09/16 06:52:56;;;;;;;12.00;5.55;;;14.40;96.00;;;;;;5022167;28;20033;-64
2021/09/16 06:55:21;;;;;;;10.38;5.75;;;14.40;95.90;;;;;;5024041;28;20033;-64
2021/09/16 06:57:47;;;;;;;11.00;5.93;;;14.40;95.90;;;;;;5023187;28;20112;-63
2021/09/16 07:00:15;;;;;;;13.48;5.68;;;14.40;95.90;;;;;;5024791;28;20025;-65
2021/09/16 07:02:40;;;;;;;8.88;5.55;;;14.40;96.00;;;;;;5025031;28;20029;-64
2021/09/16 07:05:06;;;;;;;10.20;5.50;;;14.40;96.00;;;;;;5023001;28;20044;-64
2021/09/16 07:07:32;;;;;;;11.35;5.15;;;14.40;96.00;;;;;;5025901;28;20060;-64
2021/09/16 07:09:58;;;;;;;12.38;5.47;;;14.40;95.90;;;;;;5026199;28;20029;-64
2021/09/16 07:12:23;;;;;;;9.85;4.97;;;14.40;95.90;;;;;;5026225;28;20496;-64
2021/09/16 07:14:49;;;;;;;10.68;5.10;;;14.40;96.20;;;;;;5022918;28;20034;-64
2021/09/16 07:17:14;;;;;;;11.85;4.65;;;14.40;96.00;;;;;;5025018;28;20496;-64
2021/09/16 07:19:40;;;;;;;16.27;5.00;;;14.50;96.00;;;;;;5027249;28;20375;-64
2021/09/16 07:22:06;;;;;;;9.77;4.65;;;14.60;96.00;;;;;;5022619;28;20510;-65
2021/09/16 07:24:31;;;;;;;6.85;4.35;;;14.60;96.10;;;;;;5024864;28;20033;-64
2021/09/16 07:26:57;;;;;;;6.20;3.85;;;14.60;95.80;;;;;;5023448;28;20112;-64
2021/09/16 07:29:24;;;;;;;8.40;4.28;;;14.60;95.80;;;;;;5019574;28;20439;-65
2021/09/16 07:31:51;;;;;;;9.55;4.13;;;14.60;95.90;;;;;;5026218;28;20268;-65
2021/09/16 07:34:18;;;;;;;9.30;4.72;;;14.60;95.70;;;;;;5025245;28;20496;-64
2021/09/16 07:36:44;;;;;;;9.30;4.80;;;14.60;95.80;;;;;;5024732;28;20076;-64
2021/09/16 07:39:14;;;;;;;8.75;4.28;;;14.80;95.90;;;;;;5023003;28;20520;-64
2021/09/16 07:41:40;;;;;;;6.70;4.03;;;14.80;95.40;;;;;;5025834;28;20080;-65
2021/09/16 07:44:07;;;;;;;6.80;4.10;;;14.90;95.60;;;;;;5025898;28;20065;-65
2021/09/16 07:46:33;;;;;;;5.97;4.15;;;14.90;95.60;;;;;;5024518;28;20072;-64
2021/09/16 07:48:59;;;;;;;6.93;3.88;;;14.80;95.30;;;;;;5025058;28;20029;-64
2021/09/16 07:51:25;;;;;;;9.52;4.13;;;14.90;95.50;;;;;;5027004;28;20037;-65
2021/09/16 07:53:51;;;;;;;8.68;4.13;;;14.90;95.30;;;;;;5025197;28;20133;-64
2021/09/16 07:56:19;;;;;;;12.88;4.60;;;14.90;95.40;;;;;;5026163;28;20507;-65
2021/09/16 07:58:45;;;;;;;11.10;5.00;;;14.90;95.40;;;;;;5023785;28;20029;-65
2021/09/16 08:01:11;;;;;;;8.38;5.10;;;14.80;95.40;;;;;;5026161;28;20392;-64
2021/09/16 08:03:37;;;;;;;8.70;4.20;;;14.90;95.60;;;;;;5024762;28;20049;-65
2021/09/16 08:06:03;;;;;;;11.30;5.15;;;14.90;95.50;;;;;;5026070;28;20057;-64
2021/09/16 08:08:29;;;;;;;9.35;5.30;;;14.90;95.40;;;;;;5023624;28;20117;-64
2021/09/16 08:10:55;;;;;;;8.98;5.47;;;15.00;95.50;;;;;;5025244;28;20037;-64
2021/09/16 08:13:20;;;;;;;7.30;5.53;;;15.00;95.50;;;;;;5017474;28;20467;-64
2021/09/16 08:15:46;;;;;;;9.82;5.63;;;15.00;95.50;;;;;;5023851;28;20403;-65
2021/09/16 08:18:12;;;;;;;8.57;5.50;;;15.00;95.70;;;;;;5016143;28;20025;-64
2021/09/16 08:20:47;;;;;;;9.63;5.82;;;15.00;95.60;;;;;;5023523;28;20093;-64
2021/09/16 08:23:13;;;;;;;10.65;5.88;;;15.00;95.80;;;;;;5023659;28;20078;-64
2021/09/16 08:25:38;;;;;;;9.80;5.75;;;15.00;95.70;;;;;;5026169;28;20211;-65
2021/09/16 08:28:04;;;;;;;12.60;6.18;;;15.00;95.60;;;;;;5024197;28;20547;-64
2021/09/16 08:30:30;;;;;;;10.05;6.25;;;15.20;95.50;;;;;;5026393;28;20025;-65
2021/09/16 08:32:55;;;;;;;12.95;6.60;;;15.40;94.70;;;;;;5023440;28;20037;-64
2021/09/16 08:35:21;;;;;;;10.85;7.15;;;15.50;94.60;;;;;;5025337;28;20092;-65
2021/09/16 08:37:47;;;;;;;13.98;6.78;;;15.60;94.40;;;;;;5021127;28;20060;-64
2021/09/16 08:40:14;;;;;;;11.98;6.57;;;15.80;93.80;;;;;;5025770;28;20420;-64
2021/09/16 08:42:42;;;;;;;9.15;6.38;;;16.10;93.50;;;;;;5021629;28;20037;-64
2021/09/16 08:45:15;;;;;;;9.93;5.85;;;16.30;92.80;;;;;;5021703;28;20068;-64
2021/09/16 08:47:42;;;;;;;10.93;5.85;;;16.20;92.60;;;;;;5015005;28;20029;-64
2021/09/16 08:50:08;;;;;;;14.57;6.10;;;16.40;92.40;;;;;;5020992;28;20361;-64
2021/09/16 08:52:37;;;;;;;9.50;6.15;;;16.50;92.10;;;;;;5024231;28;20316;-65
2021/09/16 08:55:08;;;;;;;12.52;5.97;;;16.60;91.00;;;;;;5023107;28;20025;-65
2021/09/16 08:57:36;;;;;;;11.57;5.93;;;16.60;91.90;;;;;;5020989;28;20033;-64
2021/09/16 09:00:08;;;;;;;10.07;6.18;;;16.60;91.70;;;;;;5023873;28;20444;-65
2021/09/16 09:02:35;;;;;;;14.50;6.20;;;16.50;91.80;;;;;;5022780;28;21731;-64
2021/09/16 09:05:03;;;;;;;12.73;6.57;;;16.70;91.80;;;;;;5025381;28;20029;-64
2021/09/16 09:07:37;;;;;;;10.75;6.40;;;16.90;91.50;;;;;;5020812;28;20061;-64
2021/09/16 09:10:04;;;;;;;16.00;5.82;;;16.80;90.50;;;;;;5018958;28;20056;-64
2021/09/16 09:12:34;;;;;;;16.40;6.65;;;16.90;90.70;;;;;;5021663;28;20065;-65
2021/09/16 09:15:01;;;;;;;9.10;6.50;;;16.80;90.60;;;;;;5023169;28;20382;-65
2021/09/16 09:17:31;;;;;;;11.27;6.07;;;16.80;90.40;;;;;;5022537;28;20067;-64
2021/09/16 09:20:01;;;;;;;10.55;6.65;;;16.70;90.60;;;;;;5026040;28;20393;-65
2021/09/16 09:22:29;;;;;;;8.82;6.28;;;16.90;90.60;;;;;;5017792;28;20372;-65
2021/09/16 09:25:09;;;;;;;8.63;5.68;;;17.00;90.50;;;;;;5022981;28;20069;-64
2021/09/16 09:27:38;;;;;;;11.00;6.35;;;17.10;90.20;;;;;;5018716;28;20103;-64
2021/09/16 09:30:12;;;;;;;7.88;5.57;;;17.00;89.70;;;;;;5025134;28;20036;-65
2021/09/16 09:32:50;;;;;;;10.20;5.53;;;17.00;89.50;;;;;;5018497;28;20026;-64
2021/09/16 09:35:29;;;;;;;12.23;5.55;;;17.20;89.50;;;;;;5024443;28;20202;-65
2021/09/16 09:37:56;;;;;;;11.50;4.32;;;17.50;88.00;;;;;;5019477;28;20026;-64
2021/09/16 09:40:33;;;;;;;10.70;4.50;;;17.50;87.50;;;;;;5018702;28;20240;-65
2021/09/16 09:43:20;;;;;;;7.88;3.47;;;17.60;87.90;;;;;;5021242;28;20128;-65
2021/09/16 09:46:07;;;;;;;6.10;3.47;;;17.80;87.10;;;;;;5024545;28;20041;-65
2021/09/16 09:48:44;;;;;;;6.05;3.30;;;17.70;85.20;;;;;;5024200;28;20052;-65
2021/09/16 09:51:11;;;;;;;8.68;3.30;;;17.80;85.60;;;;;;5020648;28;20029;-64
2021/09/16 09:53:43;;;;;;;7.32;3.25;;;17.90;85.60;;;;;;5024093;28;20033;-64
2021/09/16 09:56:17;;;;;;;11.85;3.10;;;18.00;85.80;;;;;;5023633;28;20022;-65
2021/09/16 09:58:43;;;;;;;12.40;3.08;;;18.20;85.60;;;;;;5023142;28;20436;-65
2021/09/16 10:01:32;;;;;;;7.90;2.90;;;18.30;84.90;;;;;;5019243;28;20055;-64
2021/09/16 10:03:58;;;;;;;7.85;2.80;;;18.60;85.40;;;;;;5020337;28;20029;-64
2021/09/16 10:06:35;;;;;;;5.15;2.50;;;18.60;84.50;;;;;;5012995;28;20404;-63
2021/09/16 10:09:08;;;;;;;7.57;2.00;;;18.40;84.00;;;;;;5021453;28;20041;-65
2021/09/16 10:11:53;;;;;;;6.03;2.20;;;18.00;84.00;;;;;;5018072;28;20096;-64
2021/09/16 10:14:20;;;;;;;6.75;2.35;;;17.90;83.80;;;;;;5018511;28;20052;-64
2021/09/16 10:16:46;;;;;;;7.90;2.13;;;18.00;83.60;;;;;;5021114;28;20466;-65
2021/09/16 10:19:14;;;;;;;7.03;1.75;;;18.00;84.10;;;;;;5015978;28;20113;-64
2021/09/16 10:21:40;;;;;;;5.72;1.70;;;18.20;84.10;;;;;;5016119;28;20033;-65
2021/09/16 10:24:07;;;;;;;5.72;1.55;;;18.30;84.10;;;;;;5016304;28;20507;-64
2021/09/16 10:26:49;;;;;;;3.15;1.15;;;18.20;83.00;;;;;;5010511;28;20030;-63
2021/09/16 10:29:26;;;;;;;3.40;1.30;;;18.40;83.40;;;;;;5018306;28;20431;-65
2021/09/16 10:32:07;;;;;;;4.55;1.40;;;18.60;82.10;;;;;;5016386;28;20519;-65
2021/09/16 10:34:47;;;;;;;6.38;1.75;;;18.70;82.20;;;;;;5016590;28;20468;-65
2021/09/16 10:37:18;;;;;;;5.88;1.50;;;18.60;81.90;;;;;;5020555;28;20038;-64
2021/09/16 10:39:46;;;;;;;4.30;1.60;;;18.50;82.00;;;;;;5015227;28;20397;-64
2021/09/16 10:42:14;;;;;;;3.13;1.13;;;18.60;81.70;;;;;;5008116;28;20113;-64
2021/09/16 10:44:42;;;;;;;3.70;1.30;;;18.50;82.00;;;;;;5011941;28;20452;-65
2021/09/16 10:47:17;;;;;;;5.00;1.20;;;18.50;82.30;;;;;;5018139;28;20091;-65
2021/09/16 10:49:44;;;;;;;5.93;1.30;;;18.50;82.90;;;;;;5015340;28;20052;-65
2021/09/16 10:52:10;;;;;;;3.95;1.13;;;18.60;83.20;;;;;;5020609;28;20021;-64
2021/09/16 10:54:36;;;;;;;2.45;0.73;;;18.40;82.70;;;;;;5020934;28;20495;-65
2021/09/16 10:57:30;;;;;;;1.75;0.50;;;18.40;81.30;;;;;;5016924;28;20476;-65
2021/09/16 10:59:56;;;;;;;1.85;0.70;;;18.50;81.80;;;;;;5022886;28;20029;-64
2021/09/16 11:02:23;;;;;;;5.18;0.75;;;18.30;80.80;;;;;;5027225;28;20068;-63
2021/09/16 11:04:55;;;;;;;6.03;0.90;;;18.50;80.90;;;;;;5024425;28;20029;-65
2021/09/16 11:07:33;;;;;;;2.03;0.60;;;18.60;80.80;;;;;;5026173;28;20029;-65
2021/09/16 11:10:27;;;;;;;1.13;0.40;;;18.80;80.00;;;;;;5023533;28;20026;-65
2021/09/16 11:13:04;;;;;;;2.10;0.60;;;18.80;79.50;;;;;;5003726;28;20396;-65
2021/09/16 11:15:38;;;;;;;1.42;0.45;;;18.80;80.10;;;;;;5026313;28;20095;-65
2021/09/16 11:18:07;;;;;;;1.48;0.55;;;19.00;81.00;;;;;;5024510;28;20370;-64
2021/09/16 11:20:34;;;;;;;4.32;0.70;;;19.10;79.40;;;;;;5025372;28;20297;-65
2021/09/16 11:23:00;;;;;;;0.75;0.30;;;19.20;79.00;;;;;;5024730;28;20029;-65
2021/09/16 11:25:25;;;;;;;3.22;0.88;;;19.50;78.30;;;;;;5028217;28;20048;-64
2021/09/16 11:27:55;;;;;;;4.15;0.95;;;19.20;79.00;;;;;;5023716;28;20038;-64
2021/09/16 11:30:21;;;;;;;4.80;0.75;;;19.30;80.20;;;;;;5026533;28;20037;-64
2021/09/16 11:32:49;;;;;;;3.95;0.70;;;19.20;80.30;;;;;;5024236;28;20026;-64
2021/09/16 11:35:17;;;;;;;5.05;0.82;;;19.20;80.40;;;;;;5027842;28;20523;-65
2021/09/16 11:37:51;;;;;;;2.45;0.68;;;19.20;80.30;;;;;;5025671;28;20445;-64
2021/09/16 11:40:29;;;;;;;2.53;0.90;;;19.40;80.70;;;;;;5022252;28;20024;-65
2021/09/16 11:42:59;;;;;;;4.65;1.00;;;20.00;78.60;;;;;;5021072;28;20278;-65
2021/09/16 11:45:28;;;;;;;5.60;1.08;;;20.40;77.60;;;;;;5026668;28;20112;-63
2021/09/16 11:48:04;;;;;;;2.67;0.90;;;20.00;78.10;;;;;;5025523;28;20175;-65
2021/09/16 11:50:33;;;;;;;1.98;0.60;;;19.90;79.40;;;;;;5026961;28;20025;-65
2021/09/16 11:53:12;;;;;;;2.35;0.80;;;19.80;78.50;;;;;;5018237;28;20028;-64
2021/09/16 11:55:40;;;;;;;3.70;0.70;;;19.70;78.60;;;;;;5025442;28;20032;-64
2021/09/16 11:58:10;;;;;;;3.25;0.90;;;19.50;78.90;;;;;;5023273;28;20423;-62
2021/09/16 12:00:50;;;;;;;4.03;1.20;;;19.40;79.10;;;;;;5027803;28;20475;-62
2021/09/16 12:03:28;;;;;;;3.78;1.10;;;19.50;79.00;;;;;;5026910;28;20128;-61
2021/09/16 12:06:00;;;;;;;3.85;0.98;;;19.50;77.70;;;;;;5022498;28;20041;-61
2021/09/16 12:08:25;;;;;;;4.35;1.35;;;19.60;77.80;;;;;;5020857;28;20026;-62
2021/09/16 12:11:13;;;;;;;4.35;1.17;;;19.70;76.20;;;;;;5020792;28;20478;-62
2021/09/16 12:13:42;;;;;;;3.20;0.90;;;19.70;75.40;;;;;;5019330;28;20251;-63
2021/09/16 12:16:18;;;;;;;3.63;0.70;;;19.70;75.50;;;;;;5021671;28;20049;-63
2021/09/16 12:18:59;;;;;;;1.52;0.60;;;19.70;75.00;;;;;;5022991;28;20048;-62
2021/09/16 12:21:35;;;;;;;4.15;0.90;;;19.80;74.40;;;;;;5022093;28;20025;-63
2021/09/16 12:24:19;;;;;;;4.55;0.82;;;19.90;75.10;;;;;;5024258;28;20060;-62
2021/09/16 12:26:47;;;;;;;2.35;0.77;;;19.70;74.80;;;;;;5022062;28;20033;-63
2021/09/16 12:29:15;;;;;;;3.97;0.73;;;19.80;74.30;;;;;;5016856;28;20448;-62
2021/09/16 12:31:44;;;;;;;2.40;0.60;;;19.70;74.50;;;;;;5023598;28;20025;-62
2021/09/16 12:34:13;;;;;;;2.58;0.70;;;19.80;75.20;;;;;;5022142;28;20040;-62
2021/09/16 12:37:00;;;;;;;4.22;0.80;;;20.30;75.20;;;;;;5023544;28;20029;-61
2021/09/16 12:39:27;;;;;;;2.45;0.60;;;19.90;73.80;;;;;;5023978;28;20028;-63
2021/09/16 12:41:58;;;;;;;3.95;0.70;;;20.00;74.20;;;;;;5013460;28;20113;-62
2021/09/16 12:44:33;;;;;;;2.42;0.65;;;20.10;73.70;;;;;;5024418;28;20520;-62
2021/09/16 12:47:09;;;;;;;3.95;1.00;;;20.30;72.30;;;;;;5025141;28;20048;-62